Time;durP1;ratioP1;P1;durP2;ratioP2;P2;SDS_P1;SDS_P2;PMS_P1;PMS_P2;Temp;Humidity;BMP_temperature;BMP_pressure;BME280_temperature;BME280_humidity;BME280_pressure;Samples;Min_cycle;Max_cycle;Signal;HPM_P1;HPM_P2
2022/07/01 00:01:18;;;;;;;7.00;3.28;;;;;;;19.98;55.26;101459.38;5118647;28;20051;-59
2022/07/01 00:03:49;;;;;;;3.80;3.17;;;;;;;19.97;55.47;101457.75;5128449;27;20084;-60
2022/07/01 00:06:17;;;;;;;3.95;3.03;;;;;;;19.95;55.62;101455.28;5127053;27;20044;-59
2022/07/01 00:08:45;;;;;;;3.95;3.15;;;;;;;19.94;55.40;101459.09;5120742;28;20051;-60
2022/07/01 00:11:13;;;;;;;5.03;3.63;;;;;;;19.86;55.80;101436.97;5117118;28;20051;-59
2022/07/01 00:13:41;;;;;;;4.07;2.50;;;;;;;19.88;55.73;101443.00;5113936;28;20103;-60
2022/07/01 00:16:08;;;;;;;7.45;3.25;;;;;;;19.89;55.54;101447.34;5108480;27;20234;-60
2022/07/01 00:18:36;;;;;;;4.20;3.13;;;;;;;19.88;55.40;101446.53;5112910;27;20534;-59
2022/07/01 00:21:06;;;;;;;5.95;3.20;;;;;;;19.85;55.58;101444.34;5111731;27;20055;-59
2022/07/01 00:23:40;;;;;;;4.18;3.05;;;;;;;19.83;55.82;101439.16;5118957;28;20131;-60
2022/07/01 00:26:09;;;;;;;6.57;3.50;;;;;;;19.82;55.50;101442.16;5114737;27;20188;-60
2022/07/01 00:28:37;;;;;;;6.68;3.33;;;;;;;19.81;55.62;101440.53;5112698;28;20044;-60
2022/07/01 00:31:04;;;;;;;3.60;2.95;;;;;;;19.79;55.73;101421.69;5120059;27;20069;-60
2022/07/01 00:33:32;;;;;;;5.97;3.85;;;;;;;19.77;55.50;101414.88;5110197;28;20070;-59
2022/07/01 00:36:00;;;;;;;6.15;3.40;;;;;;;19.74;55.60;101407.22;5121810;28;20043;-60
2022/07/01 00:38:29;;;;;;;4.22;3.45;;;;;;;19.72;55.60;101412.13;5108980;28;20128;-60
2022/07/01 00:40:57;;;;;;;4.93;3.13;;;;;;;19.70;55.58;101411.56;5115387;27;20220;-59
2022/07/01 00:43:25;;;;;;;4.55;3.20;;;;;;;19.68;55.61;101416.47;5113287;28;20055;-60
2022/07/01 00:46:13;;;;;;;4.43;3.33;;;;;;;19.67;55.79;101412.13;5119407;28;20079;-59
2022/07/01 00:48:45;;;;;;;4.60;3.67;;;;;;;19.65;55.85;101414.28;5114127;28;20050;-60
2022/07/01 00:51:13;;;;;;;3.70;2.90;;;;;;;19.62;55.71;101414.81;5121499;28;20051;-60
2022/07/01 00:53:42;;;;;;;4.50;3.28;;;;;;;19.62;55.66;101425.72;5104986;28;20512;-59
2022/07/01 00:56:10;;;;;;;6.72;3.63;;;;;;;19.60;55.73;101427.91;5108841;27;20085;-59
2022/07/01 00:58:38;;;;;;;5.95;3.83;;;;;;;19.58;55.87;101420.00;5107028;28;20237;-59
2022/07/01 01:01:05;;;;;;;6.00;4.22;;;;;;;19.58;55.82;101435.53;5114755;28;20047;-60
2022/07/01 01:03:34;;;;;;;8.30;4.25;;;;;;;19.56;56.00;101440.44;5111832;28;20520;-59
2022/07/01 01:06:03;;;;;;;6.70;4.20;;;;;;;19.54;56.01;101440.72;5116885;27;20271;-60
2022/07/01 01:08:31;;;;;;;5.90;4.28;;;;;;;19.53;55.89;101439.06;5120748;27;20134;-60
2022/07/01 01:11:01;;;;;;;8.30;4.53;;;;;;;19.52;56.04;101440.16;5122821;28;20086;-60
2022/07/01 01:13:28;;;;;;;8.60;5.05;;;;;;;19.53;55.81;101454.59;5114099;28;20108;-60
2022/07/01 01:15:56;;;;;;;7.72;4.88;;;;;;;19.52;56.05;101461.16;5122960;27;20043;-60
2022/07/01 01:18:24;;;;;;;7.75;4.20;;;;;;;19.39;56.07;101448.78;5109034;27;20043;-60
2022/07/01 01:20:54;;;;;;;6.70;4.30;;;;;;;19.50;56.06;101469.56;5121811;27;20043;-60
2022/07/01 01:23:22;;;;;;;8.38;4.72;;;;;;;19.45;56.15;101475.81;5114006;28;20044;-60
2022/07/01 01:25:50;;;;;;;9.35;4.88;;;;;;;19.49;56.19;101476.09;5113341;28;20075;-59
2022/07/01 01:28:18;;;;;;;9.43;5.32;;;;;;;19.47;55.99;101470.09;5119311;28;20492;-60
2022/07/01 01:30:46;;;;;;;9.70;5.80;;;;;;;19.46;56.02;101465.72;5112415;27;20063;-60
2022/07/01 01:33:13;;;;;;;11.48;6.03;;;;;;;19.44;56.18;101479.63;5105169;28;20059;-60
2022/07/01 01:35:42;;;;;;;13.55;5.68;;;;;;;19.42;56.23;101470.06;5108419;27;20082;-60
2022/07/01 01:38:11;;;;;;;9.90;5.40;;;;;;;19.40;56.09;101464.06;5118828;28;20048;-60
2022/07/01 01:40:39;;;;;;;13.98;5.80;;;;;;;19.39;56.04;101463.25;5109119;28;20059;-60
2022/07/01 01:43:07;;;;;;;7.97;4.93;;;;;;;19.36;56.15;101463.78;5116910;28;20489;-59
2022/07/01 01:45:34;;;;;;;9.35;5.35;;;;;;;19.38;56.41;101469.78;5122838;27;20078;-59
2022/07/01 01:48:02;;;;;;;10.10;5.63;;;;;;;19.36;56.11;101468.41;5114854;27;20041;-60
2022/07/01 01:50:30;;;;;;;10.82;5.68;;;;;;;19.36;56.01;101462.94;5129760;28;20054;-59
2022/07/01 01:52:58;;;;;;;8.85;5.05;;;;;;;19.35;56.20;101459.41;5123335;28;20116;-60
2022/07/01 01:55:27;;;;;;;8.65;5.30;;;;;;;19.34;56.16;101462.41;5114930;28;20043;-58
2022/07/01 01:57:55;;;;;;;10.15;5.53;;;;;;;19.32;56.29;101467.28;5115750;27;20058;-59
2022/07/01 02:00:22;;;;;;;8.95;5.60;;;;;;;19.31;56.04;101466.47;5119623;28;20044;-58
2022/07/01 02:02:50;;;;;;;11.32;5.88;;;;;;;19.30;56.31;101475.72;5122390;27;20079;-59
2022/07/01 02:05:18;;;;;;;7.95;4.50;;;;;;;19.28;56.32;101469.72;5114861;28;20044;-59
2022/07/01 02:07:46;;;;;;;7.90;4.82;;;;;;;19.23;56.30;101472.41;5119830;28;20093;-59
2022/07/01 02:10:14;;;;;;;8.43;5.05;;;;;;;19.27;56.07;101489.06;5119642;28;20059;-59
2022/07/01 02:12:43;;;;;;;11.88;5.00;;;;;;;19.27;56.36;101483.63;5121963;28;20083;-59
2022/07/01 02:15:11;;;;;;;11.15;5.97;;;;;;;19.25;56.26;101499.41;5120381;27;20062;-59
2022/07/01 02:17:39;;;;;;;7.45;4.63;;;;;;;19.23;56.34;101494.22;5109043;27;20075;-60
2022/07/01 02:20:07;;;;;;;8.63;5.38;;;;;;;19.22;56.47;101497.22;5107147;28;20122;-59
2022/07/01 02:22:36;;;;;;;8.52;5.05;;;;;;;19.21;56.31;101506.47;5123420;27;20082;-60
2022/07/01 02:25:04;;;;;;;7.85;5.22;;;;;;;19.19;56.30;101509.47;5112928;27;20055;-59
2022/07/01 02:27:32;;;;;;;10.65;5.15;;;;;;;19.19;56.32;101506.72;5125910;27;20467;-59
2022/07/01 02:30:01;;;;;;;6.65;4.05;;;;;;;19.13;56.33;101480.53;5107344;27;20075;-60
2022/07/01 02:32:29;;;;;;;7.22;4.80;;;;;;;19.17;56.39;101459.84;5113366;28;20044;-58
2022/07/01 02:34:57;;;;;;;9.93;4.60;;;;;;;19.14;56.29;101455.75;5120767;28;20044;-60
2022/07/01 02:37:24;;;;;;;9.07;5.13;;;;;;;19.05;56.56;101456.53;5109293;27;20043;-59
2022/07/01 02:39:52;;;;;;;9.57;5.15;;;;;;;19.12;56.53;101484.34;5119651;28;20044;-58
2022/07/01 02:42:26;;;;;;;9.07;4.78;;;;;;;18.97;56.53;101462.50;5118860;28;20080;-61
2022/07/01 02:44:54;;;;;;;10.45;5.55;;;;;;;19.09;56.45;101482.16;5117391;27;20054;-60
2022/07/01 02:47:23;;;;;;;7.47;4.57;;;;;;;19.08;56.58;101494.13;5124530;27;20044;-60
2022/07/01 02:49:56;;;;;;;10.60;5.35;;;;;;;19.07;56.74;101493.31;5119161;28;20048;-60
2022/07/01 02:52:24;;;;;;;9.48;5.80;;;;;;;19.06;56.82;101493.59;5115818;27;20076;-60
2022/07/01 02:54:51;;;;;;;7.75;5.88;;;;;;;19.05;56.66;101508.31;5121028;28;20132;-60
2022/07/01 02:57:19;;;;;;;8.25;5.38;;;;;;;19.03;56.77;101500.41;5114753;28;20091;-60
2022/07/01 02:59:47;;;;;;;11.32;5.20;;;;;;;19.01;56.80;101499.84;5124397;27;20048;-60
2022/07/01 03:02:15;;;;;;;10.32;5.28;;;;;;;19.02;56.89;101493.31;5121162;27;20047;-59
2022/07/01 03:04:44;;;;;;;8.77;4.90;;;;;;;19.02;56.74;101506.09;5120965;27;20099;-60
2022/07/01 03:07:11;;;;;;;9.00;5.47;;;;;;;19.00;56.71;101503.66;5111485;27;20052;-60
2022/07/01 03:09:39;;;;;;;7.60;5.18;;;;;;;18.98;56.78;101497.63;5106656;28;20085;-60
2022/07/01 03:14:51;;;;;;;10.23;5.28;;;;;;;18.97;56.87;101506.06;5118437;28;20072;-60
2022/07/01 03:17:19;;;;;;;13.40;6.32;;;;;;;18.92;57.15;101506.03;5126615;27;20058;-59
2022/07/01 03:19:48;;;;;;;8.50;5.40;;;;;;;18.94;56.81;101499.25;5118311;27;20051;-60
2022/07/01 03:22:16;;;;;;;8.40;4.90;;;;;;;18.93;57.00;101508.50;5122197;28;20433;-60
2022/07/01 03:24:44;;;;;;;9.40;5.18;;;;;;;18.91;57.15;101507.13;5111696;28;20102;-61
2022/07/01 03:27:11;;;;;;;12.90;5.78;;;;;;;18.92;56.97;101511.47;5123426;27;20051;-58
2022/07/01 03:29:39;;;;;;;10.52;5.43;;;;;;;18.91;56.84;101509.84;5127721;27;20044;-61
2022/07/01 03:32:09;;;;;;;7.35;5.22;;;;;;;18.90;57.00;101519.91;5120563;28;20051;-60
2022/07/01 03:34:37;;;;;;;9.95;5.28;;;;;;;18.89;57.06;101531.88;5113180;27;20043;-60
2022/07/01 03:37:08;;;;;;;10.27;5.45;;;;;;;18.89;57.12;101545.50;5131019;27;20130;-58
2022/07/01 03:39:37;;;;;;;9.65;5.07;;;;;;;18.88;57.00;101540.31;5119229;28;20366;-58
2022/07/01 03:42:06;;;;;;;9.63;4.53;;;;;;;18.87;57.05;101541.41;5108892;27;20079;-59
2022/07/01 03:44:35;;;;;;;10.88;5.05;;;;;;;18.83;57.34;101549.28;5109358;28;20048;-60
2022/07/01 03:47:05;;;;;;;11.65;5.15;;;;;;;18.83;57.15;101558.25;5115272;28;20067;-59
2022/07/01 03:49:33;;;;;;;9.38;4.65;;;;;;;18.82;57.21;101572.97;5115926;27;20051;-59
2022/07/01 03:52:01;;;;;;;9.95;5.55;;;;;;;18.83;56.98;101562.91;5117481;28;20051;-58
2022/07/01 03:54:29;;;;;;;6.88;5.13;;;;;;;18.82;57.24;101555.81;5116684;27;20106;-59
2022/07/01 03:56:57;;;;;;;9.25;5.20;;;;;;;18.80;57.17;101564.22;5113961;28;20067;-59
2022/07/01 03:59:25;;;;;;;8.57;5.47;;;;;;;18.81;57.28;101570.50;5105341;28;20079;-58
2022/07/01 04:01:53;;;;;;;6.97;4.85;;;;;;;18.81;57.23;101573.22;5118202;27;20048;-58
2022/07/01 04:04:21;;;;;;;7.60;5.30;;;;;;;18.79;57.22;101567.22;5124623;27;20734;-59
2022/07/01 04:06:50;;;;;;;8.63;5.30;;;;;;;18.77;57.42;101569.38;5115480;27;20047;-60
2022/07/01 04:09:18;;;;;;;10.93;5.57;;;;;;;18.76;57.36;101567.72;5120772;27;20489;-58
2022/07/01 04:11:49;;;;;;;11.65;5.45;;;;;;;18.74;57.37;101562.53;5107102;28;20505;-59
2022/07/01 04:14:17;;;;;;;8.25;5.63;;;;;;;18.70;57.23;101563.31;5118386;28;20248;-59
2022/07/01 04:16:46;;;;;;;7.95;4.80;;;;;;;18.71;57.36;101567.69;5120429;28;20047;-59
2022/07/01 04:19:15;;;;;;;9.45;5.72;;;;;;;18.70;57.68;101575.03;5109999;28;20043;-59
2022/07/01 04:24:28;;;;;;;7.97;4.45;;;;;;;18.68;57.41;101565.47;5119715;28;20051;-59
2022/07/01 04:26:58;;;;;;;8.40;5.75;;;;;;;18.68;57.45;101565.47;5115474;27;20073;-59
2022/07/01 04:29:25;;;;;;;9.90;5.18;;;;;;;18.65;57.34;101566.81;5119317;27;20044;-59
2022/07/01 04:31:53;;;;;;;7.50;4.97;;;;;;;18.65;57.50;101571.44;5112283;28;20044;-59
2022/07/01 04:34:21;;;;;;;7.88;4.82;;;;;;;18.65;57.42;101576.88;5123852;28;20073;-60
2022/07/01 04:36:49;;;;;;;8.82;4.68;;;;;;;18.65;57.40;101579.59;5119024;27;20048;-60
2022/07/01 04:39:16;;;;;;;6.97;5.00;;;;;;;18.64;57.40;101577.97;5113454;28;20048;-60
2022/07/01 04:42:02;;;;;;;8.90;4.75;;;;;;;18.64;57.43;101589.69;5121394;27;20044;-59
2022/07/01 04:44:33;;;;;;;7.90;5.20;;;;;;;18.62;57.51;101589.13;5123123;28;20043;-59
2022/07/01 04:47:08;;;;;;;9.40;4.63;;;;;;;18.56;57.74;101573.78;5116047;28;20055;-59
2022/07/01 04:49:36;;;;;;;7.60;4.90;;;;;;;18.62;57.55;101589.13;5129718;27;20074;-60
2022/07/01 04:52:04;;;;;;;6.72;4.68;;;;;;;18.61;57.45;101592.09;5114422;28;20089;-59
2022/07/01 04:54:32;;;;;;;9.77;5.47;;;;;;;18.60;57.46;101579.53;5122833;27;20052;-59
2022/07/01 04:56:59;;;;;;;7.90;4.75;;;;;;;18.58;57.51;101576.25;5119892;28;20059;-59
2022/07/01 04:59:27;;;;;;;10.52;4.80;;;;;;;18.58;57.38;101577.06;5120360;27;20067;-60
2022/07/01 05:01:58;;;;;;;9.90;5.15;;;;;;;18.59;57.32;101594.22;5115741;27;20583;-62
2022/07/01 05:04:27;;;;;;;7.13;4.63;;;;;;;18.58;57.30;101598.84;5121479;28;20051;-62
2022/07/01 05:06:55;;;;;;;12.10;5.25;;;;;;;18.58;57.29;101601.56;5112803;27;20066;-61
2022/07/01 05:09:23;;;;;;;8.40;4.78;;;;;;;18.58;57.37;101598.03;5123914;28;20043;-62
2022/07/01 05:11:54;;;;;;;9.20;4.57;;;;;;;18.56;57.38;101590.09;5120159;27;20138;-61
2022/07/01 05:14:21;;;;;;;5.97;4.07;;;;;;;18.57;57.43;101593.66;5117213;28;20255;-60
2022/07/01 05:16:49;;;;;;;8.52;4.72;;;;;;;18.57;57.44;101594.47;5110194;28;20083;-62
2022/07/01 05:22:04;;;;;;;8.13;4.25;;;;;;;18.56;57.30;101590.09;5109314;27;20078;-58
2022/07/01 05:24:33;;;;;;;6.20;4.20;;;;;;;18.57;57.44;101596.38;5120660;28;20083;-60
2022/07/01 05:27:01;;;;;;;8.98;4.63;;;;;;;18.51;57.47;101588.16;5121083;28;20450;-59
2022/07/01 05:29:29;;;;;;;7.65;4.30;;;;;;;18.56;57.29;101589.28;5130468;27;20139;-60
2022/07/01 05:31:57;;;;;;;6.45;3.60;;;;;;;18.55;57.53;101593.91;5113318;27;20421;-59
2022/07/01 05:34:26;;;;;;;9.45;4.60;;;;;;;18.53;57.46;101596.88;5116091;27;20075;-60
2022/07/01 05:36:54;;;;;;;6.38;4.25;;;;;;;18.53;57.28;101587.91;5119411;27;20039;-58
2022/07/01 05:39:22;;;;;;;8.50;3.92;;;;;;;18.51;57.49;101582.72;5121852;27;20058;-61
2022/07/01 05:41:49;;;;;;;8.00;4.45;;;;;;;18.51;57.52;101588.16;5106140;28;20209;-63
2022/07/01 05:44:17;;;;;;;6.53;4.07;;;;;;;18.50;57.33;101596.59;5115216;27;20102;-62
2022/07/01 05:46:45;;;;;;;8.88;4.07;;;;;;;18.51;57.74;101588.16;5123764;27;20047;-63
2022/07/01 05:49:13;;;;;;;7.35;3.88;;;;;;;18.50;57.65;101593.84;5106025;28;20044;-61
2022/07/01 05:51:46;;;;;;;7.20;4.70;;;;;;;18.47;57.70;101592.47;5106649;28;20048;-62
2022/07/01 05:54:14;;;;;;;8.27;5.10;;;;;;;18.45;57.81;101600.06;5110915;28;20048;-61
2022/07/01 05:56:42;;;;;;;9.45;4.13;;;;;;;18.45;57.75;101601.97;5103126;28;20063;-60
2022/07/01 05:59:10;;;;;;;7.32;3.83;;;;;;;18.43;57.75;101591.34;5120219;28;20043;-61
2022/07/01 06:01:37;;;;;;;6.85;3.67;;;;;;;18.43;57.71;101593.25;5107527;28;20064;-61
2022/07/01 06:04:05;;;;;;;7.88;4.00;;;;;;;18.43;57.61;101587.78;5110970;28;20044;-62
2022/07/01 06:06:33;;;;;;;8.43;4.03;;;;;;;18.43;57.60;101601.41;5109916;28;20488;-62
2022/07/01 06:09:02;;;;;;;4.33;3.47;;;;;;;18.40;57.72;101601.91;4763675;27;9999894;-62
2022/07/01 06:11:31;;;;;;;11.25;4.18;;;;;;;18.40;57.82;101604.63;5106694;28;20306;-59
2022/07/01 06:13:59;;;;;;;6.88;3.78;;;;;;;18.40;57.74;101604.63;5118215;28;20073;-64
2022/07/01 06:16:26;;;;;;;7.07;3.20;;;;;;;18.42;57.84;101606.03;5117768;28;20078;-66
2022/07/01 06:18:58;;;;;;;6.22;3.15;;;;;;;18.42;57.74;101613.38;5117018;28;20537;-62
2022/07/01 06:21:26;;;;;;;6.10;3.10;;;;;;;18.43;57.63;101606.84;5134290;28;20063;-61
2022/07/01 06:23:54;;;;;;;8.75;3.47;;;;;;;18.40;57.58;101601.91;5124644;28;20063;-61
2022/07/01 06:26:23;;;;;;;6.32;3.47;;;;;;;18.40;57.66;101600.00;5114086;28;20096;-62
2022/07/01 06:28:50;;;;;;;5.57;3.13;;;;;;;18.41;57.83;101598.13;5104576;28;20051;-63
2022/07/01 06:31:18;;;;;;;10.48;3.40;;;;;;;18.35;57.77;101589.06;5108440;28;20040;-61
2022/07/01 06:33:46;;;;;;;5.88;3.30;;;;;;;18.49;57.79;101600.38;5132482;28;20047;-60
2022/07/01 06:36:14;;;;;;;5.13;3.35;;;;;;;18.47;57.86;101599.81;5108244;28;20112;-61
2022/07/01 06:38:42;;;;;;;5.97;2.53;;;;;;;18.48;57.56;101593.28;5127173;28;20065;-61
2022/07/01 06:41:28;;;;;;;3.20;2.10;;;;;;;18.49;57.84;101589.50;5117056;28;20044;-60
2022/07/01 06:43:58;;;;;;;4.60;2.35;;;;;;;18.52;57.65;101599.88;5117148;28;20500;-61
2022/07/01 06:46:27;;;;;;;7.22;2.42;;;;;;;18.54;57.83;101590.38;5119163;27;20073;-60
2022/07/01 06:48:55;;;;;;;9.07;2.78;;;;;;;18.57;57.60;101594.47;5125964;28;20059;-60
2022/07/01 06:51:23;;;;;;;3.22;2.30;;;;;;;18.59;57.50;101592.31;5124562;28;20153;-61
2022/07/01 06:53:51;;;;;;;6.45;2.42;;;;;;;18.61;57.27;101584.75;5130281;27;20044;-60
2022/07/01 06:56:20;;;;;;;8.63;2.60;;;;;;;18.64;57.29;101586.13;5105080;28;20044;-60
2022/07/01 06:58:48;;;;;;;7.07;2.55;;;;;;;18.65;57.31;101585.88;5104577;28;20070;-60
2022/07/01 07:01:17;;;;;;;9.05;2.97;;;;;;;18.65;57.15;101594.03;5119779;28;20039;-61
2022/07/01 07:03:44;;;;;;;5.15;2.30;;;;;;;18.66;57.13;101590.25;5118261;28;20078;-60
2022/07/01 07:06:12;;;;;;;10.13;2.70;;;;;;;18.67;56.90;101597.34;5125436;28;20479;-60
2022/07/01 07:08:40;;;;;;;4.53;2.25;;;;;;;18.69;56.87;101605.25;5124531;27;20048;-60
2022/07/01 07:11:08;;;;;;;5.43;2.20;;;;;;;18.70;57.03;101609.59;5118367;28;20472;-61
2022/07/01 07:13:37;;;;;;;9.88;2.45;;;;;;;18.66;57.19;101616.66;5111161;27;20517;-61
2022/07/01 07:16:05;;;;;;;5.15;2.30;;;;;;;18.71;57.02;101628.41;5112917;27;20048;-61
2022/07/01 07:18:34;;;;;;;6.35;1.98;;;;;;;18.73;56.85;101622.72;5121013;27;20040;-61
2022/07/01 07:21:03;;;;;;;5.07;2.58;;;;;;;18.73;56.58;101628.16;5121663;28;20120;-61
2022/07/01 07:23:31;;;;;;;8.25;1.70;;;;;;;18.73;56.48;101620.00;5123941;27;20043;-61
2022/07/01 07:25:59;;;;;;;6.22;1.98;;;;;;;18.72;56.44;101626.50;5128766;27;20055;-61
2022/07/01 07:28:26;;;;;;;7.18;2.05;;;;;;;18.69;56.25;101624.31;5118162;28;20150;-61
2022/07/01 07:30:54;;;;;;;4.72;1.65;;;;;;;18.69;56.22;101627.84;5124866;28;20059;-61
2022/07/01 07:33:22;;;;;;;3.78;1.50;;;;;;;18.74;56.49;101618.91;5111579;28;20054;-61
2022/07/01 07:35:52;;;;;;;4.72;1.98;;;;;;;18.71;56.41;101612.06;5120389;28;20051;-61
2022/07/01 07:38:19;;;;;;;5.20;1.77;;;;;;;18.71;56.21;101624.88;5115703;27;20500;-61
2022/07/01 07:40:47;;;;;;;8.27;2.10;;;;;;;18.69;56.17;101633.28;5111617;28;20456;-62
2022/07/01 07:43:15;;;;;;;5.85;1.58;;;;;;;18.68;56.02;101625.38;5117824;28;20078;-60
2022/07/01 07:45:43;;;;;;;4.32;1.65;;;;;;;18.67;56.11;101627.28;5111789;28;20048;-61
2022/07/01 07:48:11;;;;;;;6.93;1.50;;;;;;;18.60;56.19;101629.34;5129093;27;20069;-60
2022/07/01 07:50:39;;;;;;;4.43;1.60;;;;;;;18.70;56.38;101643.09;5120668;27;20063;-61
2022/07/01 07:53:11;;;;;;;7.53;1.80;;;;;;;18.73;56.16;101652.66;5121529;27;20052;-62
2022/07/01 07:55:40;;;;;;;4.97;1.50;;;;;;;18.74;55.82;101654.31;5123168;28;20051;-62
2022/07/01 07:58:08;;;;;;;3.60;1.45;;;;;;;18.76;56.32;101643.97;4759750;27;9999885;-62
2022/07/01 08:00:36;;;;;;;5.97;1.50;;;;;;;18.76;55.91;101643.97;5119686;27;20464;-62
2022/07/01 08:03:07;;;;;;;5.55;1.77;;;;;;;19.01;55.79;101632.50;5118639;27;20043;-63
2022/07/01 08:05:35;;;;;;;4.45;1.33;;;;;;;18.88;55.24;101649.28;5113887;27;20065;-62
2022/07/01 08:08:03;;;;;;;4.13;1.60;;;;;;;18.79;55.27;101644.28;5123926;27;21191;-63
2022/07/01 08:10:33;;;;;;;3.50;1.00;;;;;;;18.90;55.10;101658.00;5117352;27;20545;-63
2022/07/01 08:13:04;;;;;;;3.10;1.50;;;;;;;18.99;54.80;101659.19;5107028;27;20044;-62
2022/07/01 08:15:33;;;;;;;7.70;1.73;;;;;;;18.99;54.99;101659.19;5120077;27;20047;-63
2022/07/01 08:18:00;;;;;;;2.70;1.02;;;;;;;19.03;54.64;101668.50;5115468;28;20062;-63
2022/07/01 08:20:28;;;;;;;1.95;1.50;;;;;;;18.97;54.86;101669.53;5121322;27;20077;-63
2022/07/01 08:22:56;;;;;;;4.35;1.13;;;;;;;19.06;54.52;101681.59;5117187;28;20054;-64
2022/07/01 08:25:24;;;;;;;3.65;1.40;;;;;;;18.91;54.59;101681.44;5102819;28;20070;-63
2022/07/01 08:27:53;;;;;;;1.52;0.90;;;;;;;18.82;54.49;101671.00;5117013;27;20047;-63
2022/07/01 08:30:21;;;;;;;4.38;1.30;;;;;;;18.78;54.37;101671.78;5123476;27;20051;-63
2022/07/01 08:32:49;;;;;;;3.70;1.42;;;;;;;18.77;54.62;101675.59;5114161;27;20598;-63
2022/07/01 08:35:16;;;;;;;4.78;1.30;;;;;;;18.93;54.16;101671.13;5112728;28;20071;-63
2022/07/01 08:37:44;;;;;;;3.13;0.95;;;;;;;18.91;54.37;101665.09;5128061;27;20115;-63
2022/07/01 08:40:12;;;;;;;2.15;1.00;;;;;;;19.09;54.00;101681.06;5123575;27;20056;-63
2022/07/01 08:42:40;;;;;;;3.20;1.10;;;;;;;19.09;53.90;101683.78;5116549;27;20035;-63
2022/07/01 08:45:10;;;;;;;3.17;1.10;;;;;;;19.09;53.69;101683.78;5111099;28;20056;-62
2022/07/01 08:47:50;;;;;;;2.80;1.10;;;;;;;19.02;54.28;101686.75;5114219;27;20112;-62
2022/07/01 08:50:17;;;;;;;1.13;0.82;;;;;;;18.87;54.51;101677.59;5110916;28;20105;-62
2022/07/01 08:52:50;;;;;;;3.80;1.35;;;;;;;18.89;54.61;101694.50;5128717;27;20081;-63
2022/07/01 08:55:18;;;;;;;1.45;1.15;;;;;;;18.85;54.50;101705.91;5118632;27;20060;-62
2022/07/01 08:57:46;;;;;;;1.55;0.90;;;;;;;18.96;54.39;101704.13;5108705;27;20063;-63
2022/07/01 09:00:16;;;;;;;3.33;1.00;;;;;;;18.94;54.09;101719.06;5109312;27;20047;-63
2022/07/01 09:02:51;;;;;;;3.13;0.90;;;;;;;18.88;54.01;101709.19;5121188;28;20040;-63
2022/07/01 09:05:19;;;;;;;6.82;1.27;;;;;;;18.84;54.35;101711.63;5101723;28;20077;-62
2022/07/01 09:07:48;;;;;;;3.03;1.27;;;;;;;18.80;54.11;101716.75;5109311;27;20078;-62
2022/07/01 09:10:19;;;;;;;2.70;0.90;;;;;;;18.81;54.49;101714.84;5119933;27;20047;-63
2022/07/01 09:12:47;;;;;;;2.78;1.30;;;;;;;18.81;54.42;101703.94;5111123;27;20040;-62
2022/07/01 09:15:28;;;;;;;3.33;1.05;;;;;;;18.89;54.26;101705.41;5125213;27;20048;-62
2022/07/01 09:18:03;;;;;;;2.08;1.10;;;;;;;18.84;54.17;101707.00;5109462;28;20075;-62
2022/07/01 09:20:32;;;;;;;1.73;1.08;;;;;;;18.83;54.16;101710.78;5116626;28;20137;-62
2022/07/01 09:23:02;;;;;;;3.67;1.67;;;;;;;18.95;53.88;101718.81;5121951;27;20065;-62
2022/07/01 09:25:39;;;;;;;3.70;1.25;;;;;;;18.93;53.82;101722.88;5122902;28;20047;-62
2022/07/01 09:28:19;;;;;;;2.47;1.10;;;;;;;18.92;54.05;101721.22;5119750;28;20058;-62
2022/07/01 09:30:50;;;;;;;2.72;1.23;;;;;;;18.94;53.98;101722.63;5105541;28;20036;-63
2022/07/01 09:33:19;;;;;;;3.63;1.42;;;;;;;18.96;53.91;101719.63;5109654;28;20063;-63
2022/07/01 09:35:49;;;;;;;2.40;1.10;;;;;;;19.00;53.92;101713.41;5122849;28;20082;-62
2022/07/01 09:38:18;;;;;;;5.85;1.20;;;;;;;19.01;53.93;101716.97;5117224;28;20056;-62
2022/07/01 09:41:00;;;;;;;3.78;1.20;;;;;;;19.01;54.06;101720.50;5111132;28;20044;-62
2022/07/01 09:43:30;;;;;;;3.65;1.50;;;;;;;19.03;53.60;101725.72;5108574;28;20093;-62
2022/07/01 09:46:02;;;;;;;3.80;1.38;;;;;;;19.01;53.70;101725.97;5120846;28;20047;-60
2022/07/01 09:48:44;;;;;;;2.95;1.10;;;;;;;19.01;53.70;101727.88;5116467;28;20054;-60
2022/07/01 09:51:14;;;;;;;2.78;1.02;;;;;;;19.02;53.78;101724.88;5115558;27;20040;-60
2022/07/01 09:53:43;;;;;;;5.05;1.60;;;;;;;18.99;53.96;101727.28;5106117;28;20051;-61
2022/07/01 09:56:11;;;;;;;2.33;1.15;;;;;;;19.03;53.94;101731.16;5112798;28;20052;-60
2022/07/01 09:58:42;;;;;;;3.38;1.35;;;;;;;19.02;54.01;101718.63;5115112;28;20400;-61
2022/07/01 10:01:12;;;;;;;3.13;1.30;;;;;;;19.02;53.63;101724.06;5121530;28;20138;-60
2022/07/01 10:03:41;;;;;;;7.30;1.38;;;;;;;19.04;54.11;101713.72;5116803;28;20104;-61
2022/07/01 10:06:32;;;;;;;1.88;0.98;;;;;;;19.13;53.84;101723.06;5119762;28;20054;-61
2022/07/01 10:09:14;;;;;;;4.22;1.20;;;;;;;19.08;53.47;101728.44;5114828;28;20054;-61
2022/07/01 10:12:22;;;;;;;1.80;0.90;;;;;;;19.16;53.77;101730.72;5124049;28;20100;-61
2022/07/01 10:14:52;;;;;;;3.22;1.08;;;;;;;19.16;53.98;101741.63;5054046;28;20053;-62
2022/07/01 10:17:33;;;;;;;3.75;1.00;;;;;;;19.15;53.94;101743.50;5061018;28;20227;-60
2022/07/01 10:20:08;;;;;;;6.82;1.27;;;;;;;19.16;54.00;101744.34;5057681;28;20072;-61
2022/07/01 10:22:37;;;;;;;3.60;1.58;;;;;;;19.17;53.90;101749.53;5058117;28;20310;-60
2022/07/01 10:25:31;;;;;;;2.88;0.80;;;;;;;19.20;54.08;101759.09;5062369;28;20049;-60
2022/07/01 10:28:19;;;;;;;4.57;0.60;;;;;;;19.19;53.71;101760.19;5050135;28;20455;-60
2022/07/01 10:31:02;;;;;;;1.77;1.08;;;;;;;19.20;53.95;101764.56;5072003;28;20175;-60
2022/07/01 10:33:43;;;;;;;5.43;1.30;;;;;;;19.22;53.67;101762.38;5058845;28;20109;-61
2022/07/01 10:36:15;;;;;;;2.60;1.15;;;;;;;19.22;53.40;101772.47;5059903;28;20069;-61
2022/07/01 10:39:10;;;;;;;5.00;0.95;;;;;;;19.22;53.28;101765.13;5047382;28;20053;-60
2022/07/01 10:41:39;;;;;;;5.30;1.08;;;;;;;19.24;53.47;101757.50;5055546;28;20074;-61
2022/07/01 10:44:09;;;;;;;5.28;0.80;;;;;;;19.25;53.64;101763.78;5049075;28;20048;-59
2022/07/01 10:46:45;;;;;;;3.38;1.00;;;;;;;19.27;53.63;101758.91;5045255;28;20114;-59
2022/07/01 10:49:16;;;;;;;2.22;0.88;;;;;;;19.25;53.38;101750.97;5047568;28;20099;-60
2022/07/01 10:51:49;;;;;;;2.90;0.80;;;;;;;19.29;53.40;101756.72;5122441;28;20119;-60
2022/07/01 10:54:49;;;;;;;3.42;1.48;;;;;;;19.30;52.79;101748.28;5122143;27;20380;-60
2022/07/01 10:57:23;;;;;;;2.70;1.15;;;;;;;19.30;52.85;101751.03;5116600;28;20135;-60
2022/07/01 10:59:53;;;;;;;3.03;0.80;;;;;;;19.38;53.47;101745.09;5121332;27;20047;-60
2022/07/01 11:02:23;;;;;;;2.65;1.00;;;;;;;19.35;53.16;101739.34;5120260;28;20047;-60
2022/07/01 11:04:55;;;;;;;3.45;0.90;;;;;;;19.38;52.91;101753.28;5108451;28;20040;-59
2022/07/01 11:07:25;;;;;;;3.20;1.20;;;;;;;19.37;52.45;101750.81;5112156;27;20048;-61
2022/07/01 11:09:54;;;;;;;3.92;1.00;;;;;;;19.37;52.46;101748.91;4757337;27;9999879;-60
2022/07/01 11:12:23;;;;;;;1.38;0.85;;;;;;;19.38;52.62;101734.19;5117829;27;20078;-60
2022/07/01 11:14:51;;;;;;;2.97;1.05;;;;;;;19.38;52.16;101736.09;5111869;28;20067;-60
2022/07/01 11:17:21;;;;;;;3.60;1.55;;;;;;;19.58;52.96;101735.50;5125301;27;20054;-60
2022/07/01 11:19:50;;;;;;;3.33;1.30;;;;;;;19.69;52.80;101726.31;5114700;27;20047;-60
2022/07/01 11:22:24;;;;;;;2.70;0.90;;;;;;;19.67;52.97;101731.19;5111655;27;20070;-60
2022/07/01 11:24:53;;;;;;;3.05;1.35;;;;;;;19.82;52.53;101723.13;5111289;28;20071;-60
2022/07/01 11:27:21;;;;;;;1.27;0.70;;;;;;;19.79;52.71;101715.47;5114474;27;20052;-61
2022/07/01 11:29:52;;;;;;;1.83;0.75;;;;;;;19.84;52.88;101720.97;5117588;27;20113;-60
2022/07/01 11:32:27;;;;;;;3.40;0.80;;;;;;;19.77;53.05;101715.72;5117928;27;20047;-60
2022/07/01 11:34:55;;;;;;;4.10;0.80;;;;;;;19.83;52.34;101724.78;5113526;28;20063;-60
2022/07/01 11:40:17;;;;;;;3.83;0.85;;;;;;;19.74;51.52;101718.97;5119901;27;20073;-60
2022/07/01 11:42:46;;;;;;;2.63;0.88;;;;;;;19.72;51.16;101714.88;5113852;28;20054;-61
2022/07/01 11:45:23;;;;;;;2.42;0.70;;;;;;;19.67;51.88;101699.28;5113547;27;20058;-62
2022/07/01 11:47:51;;;;;;;4.40;0.80;;;;;;;19.70;52.33;101711.59;5109955;27;20407;-60